Time;durP1;ratioP1;P1;durP2;ratioP2;P2;SDS_P1;SDS_P2;PMS_P1;PMS_P2;Temp;Humidity;BMP_temperature;BMP_pressure;BME280_temperature;BME280_humidity;BME280_pressure;Samples;Min_cycle;Max_cycle;Signal;HPM_P1;HPM_P2
2021/04/02 00:00:47;;;;;;;10.57;6.18;;;;;;;18.19;37.79;99371.66;4481385;31;33750;-86
2021/04/02 00:03:18;;;;;;;14.40;5.72;;;;;;;18.01;38.18;99358.81;4467695;31;34351;-86
2021/04/02 00:05:47;;;;;;;11.18;6.12;;;;;;;18.02;38.13;99360.50;4475001;31;35188;-84
2021/04/02 00:08:14;;;;;;;11.35;5.97;;;;;;;17.87;38.72;99361.75;4477049;31;34600;-84
2021/04/02 00:10:53;;;;;;;10.27;5.80;;;;;;;17.79;38.65;99356.19;4491848;31;33499;-84
2021/04/02 00:13:22;;;;;;;9.13;6.43;;;;;;;17.67;38.92;99356.16;4489485;31;32094;-84
2021/04/02 00:15:53;;;;;;;9.20;6.35;;;;;;;17.60;38.99;99357.59;4489004;31;32937;-84
2021/04/02 00:18:25;;;;;;;10.23;6.07;;;;;;;17.35;39.52;99360.53;4477384;31;35434;-85
2021/04/02 00:20:54;;;;;;;9.68;6.43;;;;;;;17.49;39.43;99359.44;4461413;31;34458;-85
2021/04/02 00:23:22;;;;;;;14.48;6.68;;;;;;;17.50;39.17;99363.81;4457223;31;34819;-86
2021/04/02 00:25:50;;;;;;;12.73;6.50;;;;;;;17.23;40.16;99353.47;4476426;31;34951;-86
2021/04/02 00:28:17;;;;;;;11.88;6.07;;;;;;;17.01;40.65;99355.16;4477973;31;34468;-85
2021/04/02 00:30:47;;;;;;;13.77;6.72;;;;;;;16.69;41.18;99351.41;4473121;32;33730;-85
2021/04/02 00:33:16;;;;;;;10.85;6.20;;;;;;;16.83;40.87;99348.56;4487817;31;33712;-85
2021/04/02 00:35:44;;;;;;;11.52;7.15;;;;;;;16.64;41.13;99354.44;4466874;31;34037;-86
2021/04/02 00:38:12;;;;;;;19.92;7.28;;;;;;;16.67;41.13;99348.03;4475635;31;34285;-86
2021/04/02 00:41:01;;;;;;;15.02;6.50;;;;;;;16.53;41.42;99352.59;4492960;31;33472;-86
2021/04/02 00:43:36;;;;;;;17.65;6.60;;;;;;;16.51;41.80;99354.50;4478282;31;34562;-86
2021/04/02 00:46:06;;;;;;;14.82;7.05;;;;;;;16.53;41.56;99352.59;4493573;31;33863;-87
2021/04/02 00:48:35;;;;;;;13.10;7.47;;;;;;;16.46;41.65;99359.31;4476255;31;34456;-86
2021/04/02 00:51:06;;;;;;;12.85;7.00;;;;;;;16.17;42.20;99357.97;4476058;31;33859;-86
2021/04/02 00:53:38;;;;;;;15.10;7.53;;;;;;;16.48;41.44;99353.91;4494976;31;31992;-86
2021/04/02 00:56:06;;;;;;;17.48;7.95;;;;;;;16.48;41.56;99354.75;4491306;31;33122;-86
2021/04/02 00:58:35;;;;;;;16.73;7.03;;;;;;;16.48;41.59;99360.06;4475236;31;33997;-86
2021/04/02 01:01:04;;;;;;;16.25;8.02;;;;;;;16.41;41.66;99373.97;4495227;31;34675;-85
2021/04/02 01:03:32;;;;;;;19.55;8.82;;;;;;;16.39;41.84;99366.09;4461488;31;34443;-86
2021/04/02 01:06:03;;;;;;;18.17;8.75;;;;;;;16.78;40.93;99372.94;4460063;31;34376;-87
2021/04/02 01:08:33;;;;;;;17.87;8.52;;;;;;;16.40;41.70;99373.12;4478705;31;32997;-86
2021/04/02 01:11:08;;;;;;;19.40;8.20;;;;;;;16.60;41.29;99375.13;4477498;31;33364;-86
2021/04/02 01:13:44;;;;;;;17.60;9.60;;;;;;;16.69;41.19;99362.94;4475613;31;34560;-87
2021/04/02 01:16:13;;;;;;;16.42;8.60;;;;;;;16.25;41.89;99369.78;4479815;31;33717;-86
2021/04/02 01:19:30;;;;;;;17.25;9.02;;;;;;;16.23;42.21;99361.03;4476973;31;34954;-86
2021/04/02 01:22:07;;;;;;;15.35;9.00;;;;;;;16.42;41.70;99354.34;4488121;31;33714;-86
2021/04/02 01:24:49;;;;;;;19.40;8.73;;;;;;;16.15;42.35;99367.91;4452857;31;34320;-86
2021/04/02 01:27:54;;;;;;;21.23;8.73;;;;;;;16.16;42.85;99353.63;4464555;31;34071;-86
2021/04/02 01:30:22;;;;;;;17.77;9.43;;;;;;;16.16;42.42;99348.28;4470750;31;34283;-86
2021/04/02 01:32:52;;;;;;;18.05;9.32;;;;;;;15.93;43.79;99353.50;4482117;31;34686;-87
2021/04/02 01:35:37;;;;;;;20.20;9.20;;;;;;;15.92;43.06;99351.78;4452691;31;34693;-86
2021/04/02 01:38:19;;;;;;;15.95;8.70;;;;;;;15.86;43.43;99357.56;4476758;31;34116;-86
2021/04/02 01:40:50;;;;;;;18.83;9.00;;;;;;;15.91;43.33;99352.75;4476361;31;33448;-86
2021/04/02 01:43:22;;;;;;;19.00;9.15;;;;;;;15.82;43.64;99354.28;4474025;31;34332;-87
2021/04/02 01:45:50;;;;;;;17.52;8.98;;;;;;;15.73;44.33;99351.44;4480385;31;33993;-87
2021/04/02 01:48:19;;;;;;;22.27;9.13;;;;;;;15.67;44.49;99347.41;4475800;31;33928;-86
2021/04/02 01:50:50;;;;;;;16.95;8.20;;;;;;;15.95;43.79;99361.34;4470955;31;34274;-86
2021/04/02 01:53:20;;;;;;;18.25;8.98;;;;;;;16.24;42.82;99367.25;4469891;31;35746;-86
2021/04/02 01:55:50;;;;;;;16.33;8.43;;;;;;;16.24;42.76;99361.91;4478434;31;33650;-87
2021/04/02 01:58:21;;;;;;;14.73;7.35;;;;;;;16.11;43.03;99360.13;4491757;31;32936;-86
2021/04/02 02:00:53;;;;;;;19.00;8.52;;;;;;;16.43;42.56;99362.25;4478448;31;34064;-87
2021/04/02 02:03:23;;;;;;;16.12;7.68;;;;;;;16.57;42.54;99369.19;4482083;31;34695;-86
2021/04/02 02:05:53;;;;;;;15.15;8.13;;;;;;;16.83;42.22;99373.41;4466251;31;34501;-86
2021/04/02 02:08:23;;;;;;;;;;;;;;;16.79;42.20;99374.63;4460975;31;35198;-86
2021/04/02 02:11:01;;;;;;;14.63;8.57;;;;;;;16.93;41.62;99373.56;4471239;32;33568;-86
2021/04/02 02:13:30;;;;;;;18.67;7.72;;;;;;;17.06;41.11;99377.00;4478803;31;36316;-86
2021/04/02 02:15:58;;;;;;;19.02;7.93;;;;;;;16.85;41.79;99379.50;4476285;31;33454;-86
2021/04/02 02:18:27;;;;;;;17.30;8.43;;;;;;;17.09;41.09;99371.44;4471825;31;33326;-86
2021/04/02 02:20:56;;;;;;;21.83;9.10;;;;;;;17.24;40.80;99380.06;4475501;31;34552;-86
2021/04/02 02:23:24;;;;;;;18.92;9.35;;;;;;;17.05;41.42;99382.47;4458614;31;36343;-86
2021/04/02 02:25:52;;;;;;;15.55;9.23;;;;;;;17.20;40.65;99377.75;4482468;31;34868;-87
2021/04/02 02:28:20;;;;;;;16.45;8.27;;;;;;;17.07;40.99;99381.34;4466462;31;34799;-86
2021/04/02 02:30:47;;;;;;;20.80;9.65;;;;;;;17.13;40.70;99372.03;4476355;31;34204;-86
2021/04/02 02:33:15;;;;;;;15.18;9.05;;;;;;;17.22;40.44;99381.97;4465552;31;34405;-86
2021/04/02 02:35:44;;;;;;;22.05;10.23;;;;;;;17.26;40.76;99372.78;4490522;31;34278;-85
2021/04/02 02:38:12;;;;;;;20.15;9.05;;;;;;;17.36;40.10;99384.44;4473499;31;34065;-86
2021/04/02 02:40:40;;;;;;;16.58;10.18;;;;;;;17.25;41.00;99367.56;4467468;31;34590;-86
2021/04/02 02:43:08;;;;;;;19.85;9.82;;;;;;;17.10;41.31;99354.47;4474999;32;34722;-85
2021/04/02 02:45:37;;;;;;;19.85;10.15;;;;;;;17.05;41.77;99361.97;4479325;31;34414;-86
2021/04/02 02:48:05;;;;;;;18.73;9.88;;;;;;;17.44;40.34;99364.31;4475885;31;34029;-86
2021/04/02 02:50:35;;;;;;;16.42;9.05;;;;;;;17.51;40.39;99363.69;4476817;31;35393;-86
2021/04/02 02:53:04;;;;;;;18.12;9.05;;;;;;;17.20;41.30;99364.41;4492487;31;33581;-86
2021/04/02 02:55:33;;;;;;;18.35;9.10;;;;;;;17.59;39.97;99366.59;4485483;31;33762;-86
2021/04/02 02:58:03;;;;;;;19.12;9.77;;;;;;;17.62;40.18;99362.84;4475325;31;33170;-86
2021/04/02 03:00:35;;;;;;;21.02;10.07;;;;;;;17.72;39.62;99362.97;4466390;31;34588;-86
2021/04/02 03:03:04;;;;;;;;;;;;;;;17.31;40.70;99377.75;4478525;32;34458;-84
2021/04/02 03:05:32;;;;;;;20.70;9.73;;;;;;;16.90;42.02;99389.78;4475323;32;33735;-85
2021/04/02 03:08:02;;;;;;;18.45;9.95;;;;;;;16.85;42.01;99383.97;4487592;31;32021;-85
2021/04/02 03:10:33;;;;;;;18.55;10.40;;;;;;;16.83;41.93;99391.25;4477876;31;33711;-83
2021/04/02 03:13:01;;;;;;;20.90;10.32;;;;;;;17.21;40.79;99398.97;4448514;31;33995;-82
2021/04/02 03:15:29;;;;;;;19.92;11.23;;;;;;;17.13;41.10;99399.53;4488612;31;34473;-85
2021/04/02 03:18:01;;;;;;;19.73;10.77;;;;;;;16.74;42.04;99394.59;4469976;31;34471;-84
2021/04/02 03:20:29;;;;;;;22.67;10.73;;;;;;;17.16;41.19;99398.47;4493695;31;33459;-84
2021/04/02 03:23:01;;;;;;;18.77;10.18;;;;;;;17.44;40.39;99399.00;4476417;31;35440;-85
2021/04/02 03:25:29;;;;;;;24.27;10.77;;;;;;;17.08;41.25;99396.38;4475821;31;33340;-85
2021/04/02 03:27:57;;;;;;;29.02;11.25;;;;;;;16.97;41.85;99392.84;4459956;31;32506;-85
2021/04/02 03:30:26;;;;;;;18.67;9.70;;;;;;;16.89;41.98;99398.75;4482358;31;35501;-84
2021/04/02 03:33:20;;;;;;;19.48;10.02;;;;;;;16.93;42.01;99402.91;4477624;31;34813;-85
2021/04/02 03:35:49;;;;;;;21.52;10.48;;;;;;;16.85;42.10;99407.97;4478791;31;32597;-85
2021/04/02 03:38:17;;;;;;;21.17;11.80;;;;;;;16.93;41.76;99402.91;4466532;31;34998;-85
2021/04/02 03:40:46;;;;;;;19.95;11.05;;;;;;;17.30;40.83;99400.94;4478406;31;33739;-86
2021/04/02 03:43:15;;;;;;;22.10;11.05;;;;;;;16.88;42.36;99413.06;4468830;31;35179;-85
2021/04/02 03:45:46;;;;;;;19.37;10.57;;;;;;;16.95;41.90;99408.09;4485413;31;33604;-84
2021/04/02 03:48:15;;;;;;;18.35;10.30;;;;;;;17.30;40.99;99406.25;4480653;31;34275;-84
2021/04/02 03:50:45;;;;;;;16.55;10.75;;;;;;;17.24;41.21;99408.56;4476354;31;34318;-83
2021/04/02 03:53:19;;;;;;;23.95;10.75;;;;;;;17.22;41.35;99413.16;4494894;31;35411;-83
2021/04/02 03:55:48;;;;;;;20.67;11.43;;;;;;;17.21;41.48;99412.31;4493904;31;34507;-84
2021/04/02 03:58:17;;;;;;;19.73;11.00;;;;;;;17.11;41.72;99417.50;4458184;31;32435;-84
2021/04/02 04:01:10;;;;;;;20.23;10.77;;;;;;;17.27;41.21;99409.16;4453091;31;34479;-83
2021/04/02 04:03:40;;;;;;;21.08;10.27;;;;;;;17.24;41.17;99406.75;4453888;31;35056;-84
2021/04/02 04:06:12;;;;;;;21.87;12.00;;;;;;;16.80;42.52;99418.12;4461416;31;33249;-84
2021/04/02 04:08:40;;;;;;;;;;;;;;;16.67;42.95;99415.53;4477851;31;34751;-83
2021/04/02 04:11:09;;;;;;;19.62;9.90;;;;;;;16.61;43.60;99414.13;4479263;31;34391;-83
2021/04/02 04:13:38;;;;;;;20.85;10.48;;;;;;;16.69;43.13;99416.25;4464352;31;33211;-84
2021/04/02 04:16:08;;;;;;;20.80;10.45;;;;;;;16.65;43.19;99412.09;4492653;31;35468;-83
2021/04/02 04:18:36;;;;;;;23.45;10.65;;;;;;;16.80;42.71;99423.47;4466819;31;32693;-85
2021/04/02 04:21:06;;;;;;;19.73;10.65;;;;;;;16.65;43.56;99420.94;4454043;31;34496;-85
2021/04/02 04:23:36;;;;;;;20.90;10.93;;;;;;;16.72;43.06;99415.22;4476172;31;35102;-85
2021/04/02 04:26:04;;;;;;;21.35;10.57;;;;;;;16.76;42.96;99411.31;4502584;31;33660;-85
2021/04/02 04:28:31;;;;;;;19.00;11.12;;;;;;;16.75;42.73;99409.62;4477104;31;34152;-85
2021/04/02 04:31:02;;;;;;;22.33;11.23;;;;;;;16.38;43.97;99415.88;4467519;31;34463;-85
2021/04/02 04:33:29;;;;;;;19.60;10.23;;;;;;;16.58;43.81;99408.22;4463231;31;35215;-85
2021/04/02 04:35:58;;;;;;;22.92;11.32;;;;;;;16.44;44.11;99411.91;4459419;31;33919;-84
2021/04/02 04:38:27;;;;;;;21.45;11.63;;;;;;;16.62;43.63;99415.00;4472007;31;33951;-84
2021/04/02 04:40:56;;;;;;;23.77;11.75;;;;;;;16.70;43.20;99412.59;4472472;31;34647;-86
2021/04/02 04:43:24;;;;;;;22.67;11.45;;;;;;;16.78;43.23;99412.06;4462711;31;35278;-85
2021/04/02 04:45:53;;;;;;;20.20;11.43;;;;;;;16.59;43.66;99413.41;4473052;31;34367;-86
2021/04/02 04:48:20;;;;;;;18.10;10.95;;;;;;;16.67;43.63;99420.00;4471490;31;33814;-86
2021/04/02 04:50:48;;;;;;;21.17;11.40;;;;;;;16.49;43.78;99420.41;4482152;31;34482;-86
2021/04/02 04:53:17;;;;;;;18.62;10.60;;;;;;;16.69;43.48;99426.91;4473774;31;33836;-85
2021/04/02 04:55:45;;;;;;;19.50;10.70;;;;;;;16.76;43.13;99421.97;4474947;31;34696;-86
2021/04/02 04:58:15;;;;;;;23.00;11.98;;;;;;;16.74;43.40;99437.25;4472989;31;34663;-86
2021/04/02 05:00:45;;;;;;;21.90;11.20;;;;;;;16.64;43.62;99442.41;4472440;31;36063;-86
2021/04/02 05:03:15;;;;;;;25.65;11.77;;;;;;;16.61;43.36;99438.13;4471642;31;33937;-86
2021/04/02 05:05:44;;;;;;;20.37;11.85;;;;;;;16.83;43.71;99440.09;4473380;31;35998;-86
2021/04/02 05:08:18;;;;;;;25.75;11.30;;;;;;;16.72;44.23;99437.37;4471453;31;33326;-85
2021/04/02 05:10:48;;;;;;;22.55;11.38;;;;;;;16.86;44.28;99433.69;4472881;31;34415;-86
2021/04/02 05:13:17;;;;;;;18.55;11.70;;;;;;;16.89;44.76;99436.94;4479016;31;33674;-87
2021/04/02 05:15:45;;;;;;;27.60;11.65;;;;;;;16.76;45.21;99444.19;4479842;31;34648;-87
2021/04/02 05:18:13;;;;;;;19.25;11.07;;;;;;;16.83;45.04;99447.22;4468151;31;34416;-87
2021/04/02 05:20:43;;;;;;;23.92;11.55;;;;;;;17.08;44.00;99446.22;4480247;31;33654;-87
2021/04/02 05:23:12;;;;;;;22.23;11.23;;;;;;;17.12;43.74;99451.22;4471163;31;34455;-86
2021/04/02 05:25:40;;;;;;;20.90;11.20;;;;;;;17.06;44.57;99450.84;4473438;32;33316;-85
2021/04/02 05:28:07;;;;;;;23.48;11.93;;;;;;;17.48;42.51;99436.00;4469459;31;34671;-85
2021/04/02 05:30:35;;;;;;;20.48;11.30;;;;;;;17.54;42.18;99440.88;4488614;31;33654;-85
2021/04/02 05:33:04;;;;;;;19.35;10.73;;;;;;;17.20;43.85;99447.97;4477740;31;34443;-87
2021/04/02 05:35:32;;;;;;;24.10;12.77;;;;;;;17.19;44.17;99450.75;4463232;31;34127;-86
2021/04/02 05:38:00;;;;;;;22.92;12.10;;;;;;;17.32;43.51;99451.50;4477576;31;34314;-85
2021/04/02 05:40:31;;;;;;;20.92;10.93;;;;;;;17.16;43.95;99457.16;4478487;31;33435;-86
2021/04/02 05:43:20;;;;;;;21.45;11.93;;;;;;;17.23;43.68;99465.53;4489266;31;33640;-86
2021/04/02 05:45:48;;;;;;;25.12;12.05;;;;;;;17.55;42.55;99463.06;4493558;31;35306;-86
2021/04/02 05:48:16;;;;;;;24.90;11.15;;;;;;;17.69;41.99;99462.00;4478641;31;34703;-86
2021/04/02 05:50:44;;;;;;;20.48;10.77;;;;;;;17.27;43.64;99475.03;4486858;31;33640;-85
2021/04/02 05:53:12;;;;;;;20.37;11.52;;;;;;;17.25;43.68;99476.97;4486668;31;33143;-85
2021/04/02 05:55:41;;;;;;;26.42;12.68;;;;;;;17.35;43.23;99477.97;4479083;31;33782;-85
2021/04/02 05:58:11;;;;;;;19.87;11.20;;;;;;;17.61;42.28;99465.25;4486359;31;118075;-85
2021/04/02 06:00:39;;;;;;;20.40;10.32;;;;;;;17.69;41.57;99464.66;4493123;31;33452;-85
2021/04/02 06:03:08;;;;;;;24.65;11.65;;;;;;;17.53;42.79;99470.34;4465154;31;35236;-85
2021/04/02 06:05:35;;;;;;;19.42;11.38;;;;;;;17.68;42.05;99463.81;4485508;31;34565;-85
2021/04/02 06:08:09;;;;;;;18.10;11.02;;;;;;;17.48;41.94;99472.53;4465895;31;34335;-85
2021/04/02 06:10:37;;;;;;;26.00;11.38;;;;;;;17.19;44.03;99461.44;4485003;31;33545;-86
2021/04/02 06:13:04;;;;;;;21.25;11.60;;;;;;;17.56;41.78;99460.25;4488619;31;33605;-85
2021/04/02 06:15:37;;;;;;;25.45;11.45;;;;;;;17.41;42.61;99466.81;4484960;31;34080;-84
2021/04/02 06:18:08;;;;;;;20.02;11.27;;;;;;;17.66;42.27;99461.28;4487461;31;32573;-84
2021/04/02 06:20:43;;;;;;;23.87;12.63;;;;;;;17.84;41.61;99460.81;4474255;31;34102;-85
2021/04/02 06:23:24;;;;;;;20.98;11.77;;;;;;;17.88;41.37;99468.47;4476303;31;35413;-85
2021/04/02 06:26:03;;;;;;;26.50;12.00;;;;;;;17.99;41.22;99472.09;4485222;31;33528;-85
2021/04/02 06:28:34;;;;;;;20.23;11.18;;;;;;;17.75;42.25;99486.41;4494753;31;32959;-84
2021/04/02 06:31:06;;;;;;;21.70;11.63;;;;;;;17.80;41.51;99478.03;4465446;31;34190;-84
2021/04/02 06:33:40;;;;;;;23.90;11.85;;;;;;;17.79;41.75;99487.03;4491835;31;33877;-85
2021/04/02 06:36:12;;;;;;;17.55;11.27;;;;;;;17.65;42.70;99485.41;4474965;31;34589;-85
2021/04/02 06:38:45;;;;;;;19.95;11.25;;;;;;;17.91;41.57;99480.72;4477702;31;33772;-87
2021/04/02 06:41:12;;;;;;;;;;;;;;;18.06;40.41;99482.19;4502002;31;33260;-85
2021/04/02 06:43:48;;;;;;;23.17;11.35;;;;;;;18.06;40.49;99474.16;4465268;31;33421;-85
2021/04/02 06:46:19;;;;;;;20.40;10.90;;;;;;;18.20;40.81;99475.72;4477046;31;34408;-85
2021/04/02 06:48:46;;;;;;;20.73;11.12;;;;;;;18.41;39.39;99482.00;4473481;31;32249;-85
2021/04/02 06:51:15;;;;;;;18.95;9.75;;;;;;;18.13;40.68;99470.00;4486119;31;33937;-85
2021/04/02 06:53:43;;;;;;;21.85;10.73;;;;;;;18.15;41.05;99481.44;4482738;31;35509;-85
2021/04/02 06:56:12;;;;;;;17.55;9.93;;;;;;;18.14;40.43;99485.09;4487991;31;34273;-85
2021/04/02 06:58:41;;;;;;;19.85;9.82;;;;;;;18.15;40.03;99485.94;4476930;31;33280;-85
2021/04/02 07:01:09;;;;;;;20.95;10.27;;;;;;;18.18;40.02;99488.34;4483151;31;33644;-85
2021/04/02 07:03:41;;;;;;;14.85;9.02;;;;;;;18.36;40.35;99481.53;4489759;31;33657;-85
2021/04/02 07:06:09;;;;;;;19.23;9.95;;;;;;;18.56;39.57;99471.91;4491322;31;34090;-85
2021/04/02 07:08:41;;;;;;;14.20;9.20;;;;;;;18.70;39.51;99483.31;4476877;31;32902;-85
2021/04/02 07:11:10;;;;;;;17.73;9.40;;;;;;;18.36;39.74;99486.03;4482493;31;32885;-85
2021/04/02 07:13:52;;;;;;;16.20;9.23;;;;;;;18.53;39.16;99482.84;4465985;31;32175;-86
2021/04/02 07:16:21;;;;;;;17.75;10.43;;;;;;;18.60;38.86;99496.56;4474438;31;35152;-85
2021/04/02 07:18:49;;;;;;;18.95;9.95;;;;;;;18.52;39.47;99496.34;4480735;31;33836;-85
2021/04/02 07:21:17;;;;;;;15.50;9.55;;;;;;;18.50;38.98;99498.28;4470658;31;34704;-85
2021/04/02 07:23:45;;;;;;;16.60;8.82;;;;;;;18.55;39.18;99502.28;4492147;31;33266;-85
2021/04/02 07:26:13;;;;;;;18.45;9.48;;;;;;;18.47;39.75;99498.53;4481839;31;33892;-85
2021/04/02 07:28:43;;;;;;;23.60;10.13;;;;;;;18.43;39.68;99497.94;4491074;31;33980;-85
2021/04/02 07:31:12;;;;;;;20.45;10.00;;;;;;;18.31;41.28;99507.78;4491444;31;33620;-85
2021/04/02 07:33:43;;;;;;;18.17;9.90;;;;;;;18.46;38.81;99505.69;4485154;31;33544;-85
2021/04/02 07:36:12;;;;;;;16.80;9.77;;;;;;;18.27;39.58;99522.34;4465770;31;35987;-86
2021/04/02 07:38:40;;;;;;;18.98;9.23;;;;;;;18.38;40.02;99522.38;4482538;31;32971;-85
2021/04/02 07:41:13;;;;;;;17.37;9.60;;;;;;;18.27;40.39;99519.69;4489922;31;33771;-85
2021/04/02 07:43:53;;;;;;;15.75;9.57;;;;;;;18.17;40.63;99530.25;4463056;31;34343;-85
2021/04/02 07:46:25;;;;;;;20.73;10.10;;;;;;;18.37;39.34;99525.12;4465551;31;33696;-85
2021/04/02 07:49:00;;;;;;;20.73;9.45;;;;;;;18.48;39.35;99522.47;4488004;31;32840;-86
2021/04/02 07:51:44;;;;;;;19.33;10.52;;;;;;;18.60;39.88;99525.97;4478592;31;34231;-86
2021/04/02 07:54:33;;;;;;;17.98;9.68;;;;;;;18.80;38.96;99516.34;4478427;31;36241;-86
2021/04/02 07:57:13;;;;;;;15.02;9.38;;;;;;;18.49;39.74;99513.47;4488716;31;33666;-89
2021/04/02 07:59:44;;;;;;;17.80;10.00;;;;;;;18.52;40.59;99529.28;4474946;31;32320;-87
2021/04/02 08:02:17;;;;;;;17.92;10.13;;;;;;;18.76;39.67;99533.63;4474148;31;34109;-88
2021/04/02 08:04:53;;;;;;;15.50;9.95;;;;;;;18.66;40.20;99531.69;4457684;31;33562;-83
2021/04/02 08:07:37;;;;;;;18.02;10.77;;;;;;;18.85;38.91;99532.88;4469913;31;31927;-83
2021/04/02 08:10:15;;;;;;;16.45;10.00;;;;;;;18.74;39.64;99535.56;4473330;31;33808;-83
2021/04/02 08:12:42;;;;;;;16.60;9.35;;;;;;;19.18;38.42;99535.44;4472185;31;32260;-83
2021/04/02 08:15:12;;;;;;;16.58;10.32;;;;;;;19.36;38.24;99542.88;4481342;31;33316;-83
2021/04/02 08:17:39;;;;;;;17.25;10.48;;;;;;;19.18;39.22;99546.16;4484063;31;34397;-82
2021/04/02 08:20:09;;;;;;;22.25;10.98;;;;;;;19.16;38.07;99550.75;4468985;31;34645;-83
2021/04/02 08:22:37;;;;;;;20.42;10.50;;;;;;;19.06;39.08;99549.84;4475176;31;34626;-82
2021/04/02 08:25:15;;;;;;;17.23;11.32;;;;;;;19.38;38.45;99544.47;4482367;31;33833;-84
2021/04/02 08:27:44;;;;;;;24.83;10.95;;;;;;;19.32;38.56;99544.13;4467879;31;32832;-82
2021/04/02 08:30:13;;;;;;;24.63;11.18;;;;;;;19.64;37.71;99538.75;4474488;31;34019;-82
2021/04/02 08:37:08;;;;;;;21.45;10.65;;;;;;;19.84;38.05;99539.72;4353246;32;34637;-82
2021/04/02 08:39:47;;;;;;;18.02;10.48;;;;;;;20.35;38.03;99534.31;4494940;31;148317;-82
2021/04/02 08:42:15;;;;;;;13.18;10.48;;;;;;;20.35;38.03;99534.31;4465371;31;33187;-82
2021/04/02 08:44:45;;;;;;;12.93;10.13;;;;;;;20.12;37.14;99532.81;4483957;31;34413;-82
2021/04/02 08:47:16;;;;;;;17.60;10.00;;;;;;;19.95;36.91;99529.78;4467916;31;33988;-83
2021/04/02 08:49:52;;;;;;;;;;;;;;;19.91;36.29;99531.03;4482254;31;33739;-87
2021/04/02 08:52:24;;;;;;;18.08;11.02;;;;;;;20.00;36.67;99536.56;4470986;31;33200;-87
2021/04/02 08:54:56;;;;;;;16.35;10.05;;;;;;;20.32;36.70;99528.37;4472252;31;33302;-88
2021/04/02 08:57:29;;;;;;;22.92;11.20;;;;;;;20.26;36.48;99526.25;4487028;31;34457;-83
2021/04/02 08:59:59;;;;;;;14.87;10.55;;;;;;;20.37;35.37;99523.47;4494541;31;33173;-82
2021/04/02 09:02:29;;;;;;;17.45;11.95;;;;;;;20.47;35.33;99532.44;4485403;31;33262;-82
2021/04/02 09:04:57;;;;;;;18.80;11.45;;;;;;;20.48;34.39;99534.13;4473981;31;34614;-83
2021/04/02 09:07:24;;;;;;;20.65;12.63;;;;;;;20.39;35.13;99530.38;4475897;31;36180;-81
2021/04/02 09:09:51;;;;;;;18.40;10.82;;;;;;;20.50;34.43;99537.50;4479693;31;33149;-82
2021/04/02 09:12:20;;;;;;;19.10;11.85;;;;;;;20.25;35.47;99537.94;4482463;31;33270;-81
2021/04/02 09:14:52;;;;;;;22.98;11.93;;;;;;;20.48;36.10;99536.81;4472968;31;32256;-82
2021/04/02 09:17:25;;;;;;;22.27;14.73;;;;;;;20.69;35.15;99526.81;4468180;31;34859;-82
2021/04/02 09:19:53;;;;;;;21.90;12.02;;;;;;;20.88;34.82;99535.87;4467378;31;34034;-82
2021/04/02 09:22:21;;;;;;;19.80;13.32;;;;;;;21.13;35.69;99539.88;4477155;31;33194;-82
2021/04/02 09:24:48;;;;;;;21.90;11.80;;;;;;;21.22;34.68;99539.00;4475416;31;33798;-83
2021/04/02 09:27:21;;;;;;;17.77;10.98;;;;;;;21.13;33.75;99531.84;4474456;31;33905;-82
2021/04/02 09:29:59;;;;;;;17.67;10.68;;;;;;;21.06;33.09;99536.06;4473857;31;34398;-82
2021/04/02 09:32:27;;;;;;;21.05;12.60;;;;;;;21.15;34.09;99538.75;4482871;31;32905;-83
2021/04/02 09:35:05;;;;;;;16.02;11.32;;;;;;;21.68;33.62;99529.41;4455224;31;33073;-83
2021/04/02 09:37:34;;;;;;;19.92;11.50;;;;;;;21.72;32.07;99545.09;4472660;31;35924;-83
2021/04/02 09:40:08;;;;;;;19.87;11.68;;;;;;;21.23;29.51;99544.28;4486453;31;34598;-83
2021/04/02 09:42:38;;;;;;;18.42;11.52;;;;;;;21.01;30.33;99541.84;4487410;31;33026;-83
2021/04/02 09:45:09;;;;;;;20.00;12.32;;;;;;;20.62;30.27;99544.47;4478887;31;35587;-82
2021/04/02 09:47:43;;;;;;;16.60;12.10;;;;;;;20.45;31.51;99535.19;4474453;31;34817;-82
2021/04/02 09:50:12;;;;;;;21.62;11.55;;;;;;;20.52;31.10;99535.53;4474414;31;33193;-83
2021/04/02 09:52:42;;;;;;;17.33;11.43;;;;;;;20.34;32.30;99538.00;4476171;31;32883;-83
2021/04/02 09:55:11;;;;;;;21.02;12.30;;;;;;;20.77;33.40;99533.34;4458205;31;33165;-83
2021/04/02 09:57:40;;;;;;;17.42;12.45;;;;;;;20.90;31.63;99528.56;4473933;31;35593;-83
2021/04/02 10:00:09;;;;;;;21.10;12.30;;;;;;;21.39;31.15;99530.28;4455636;31;33663;-83
2021/04/02 10:02:38;;;;;;;22.20;12.93;;;;;;;21.19;31.49;99520.53;4465902;31;33805;-83
2021/04/02 10:05:07;;;;;;;18.60;12.82;;;;;;;21.56;30.23;99527.87;4465305;31;34714;-83
2021/04/02 10:07:35;;;;;;;21.23;11.70;;;;;;;21.30;29.88;99533.78;4466685;31;35824;-83
2021/04/02 10:10:06;;;;;;;23.58;13.70;;;;;;;21.86;28.88;99526.81;4468959;31;34054;-83
2021/04/02 10:12:33;;;;;;;20.10;12.10;;;;;;;21.78;29.70;99529.37;4481917;31;33374;-83
2021/04/02 10:15:04;;;;;;;17.15;11.07;;;;;;;21.78;29.29;99522.16;4470717;31;35140;-83
2021/04/02 10:17:31;;;;;;;18.15;11.35;;;;;;;21.38;29.31;99527.75;4456681;31;33834;-85
2021/04/02 10:19:59;;;;;;;19.42;10.13;;;;;;;21.75;27.62;99527.84;4466818;31;33531;-83
2021/04/02 10:22:26;;;;;;;19.35;10.82;;;;;;;21.36;28.71;99527.03;4471015;31;33163;-83
2021/04/02 10:24:53;;;;;;;18.40;11.15;;;;;;;21.00;29.06;99528.56;4470124;31;34955;-82
2021/04/02 10:27:21;;;;;;;18.98;10.68;;;;;;;20.75;29.90;99530.81;4479244;31;33510;-83
2021/04/02 10:29:48;;;;;;;18.75;10.32;;;;;;;20.05;31.06;99523.63;4471429;31;33561;-82
2021/04/02 10:32:15;;;;;;;16.77;10.82;;;;;;;21.03;28.61;99523.78;4468923;31;33995;-83
2021/04/02 10:34:42;;;;;;;16.25;10.52;;;;;;;21.41;28.06;99519.41;4462173;31;33446;-83
2021/04/02 10:37:11;;;;;;;20.65;12.55;;;;;;;21.35;27.87;99510.06;4459014;31;33835;-82
2021/04/02 10:39:38;;;;;;;19.37;11.12;;;;;;;21.17;28.30;99512.63;4461252;31;34133;-83
2021/04/02 10:42:06;;;;;;;20.75;11.50;;;;;;;21.10;29.14;99505.25;4467672;31;33198;-83
2021/04/02 10:44:33;;;;;;;22.40;13.85;;;;;;;21.15;28.10;99511.91;4464184;31;34479;-83
2021/04/02 10:47:00;;;;;;;22.02;13.15;;;;;;;21.07;27.94;99505.53;4461461;31;33158;-82
2021/04/02 10:49:28;;;;;;;22.35;11.40;;;;;;;20.60;29.49;99508.00;4469925;31;33527;-83
2021/04/02 10:51:55;;;;;;;23.85;11.93;;;;;;;20.62;28.73;99520.31;4463516;31;34270;-82
2021/04/02 10:54:22;;;;;;;26.58;12.52;;;;;;;20.71;29.01;99514.13;4467160;31;32184;-83
2021/04/02 10:56:49;;;;;;;21.70;12.70;;;;;;;20.64;28.42;99509.44;4451434;31;32509;-83
2021/04/02 10:59:17;;;;;;;19.05;11.57;;;;;;;20.61;28.65;99513.25;4468252;31;33987;-83
2021/04/02 11:01:44;;;;;;;23.30;12.73;;;;;;;20.78;28.19;99503.69;4457192;31;32849;-85
2021/04/02 11:04:11;;;;;;;31.77;14.40;;;;;;;20.66;28.71;99511.00;4483265;31;33708;-84
2021/04/02 11:06:38;;;;;;;24.27;11.55;;;;;;;20.54;27.85;99500.53;4482473;31;33738;-85
2021/04/02 11:09:08;;;;;;;31.02;13.32;;;;;;;20.69;28.21;99501.81;4455691;31;33728;-84
2021/04/02 11:11:35;;;;;;;25.42;13.10;;;;;;;20.62;28.83;99492.66;4468907;31;33079;-84
2021/04/02 11:14:02;;;;;;;23.30;12.77;;;;;;;20.51;29.96;99490.94;4464377;31;32871;-84
2021/04/02 11:16:30;;;;;;;28.17;12.85;;;;;;;20.69;28.53;99483.88;4473299;31;34662;-85
2021/04/02 11:18:57;;;;;;;20.35;11.77;;;;;;;20.42;28.82;99483.69;4459620;31;33970;-85
2021/04/02 11:21:24;;;;;;;19.10;10.38;;;;;;;20.43;28.94;99485.38;4467358;31;33297;-84
2021/04/02 11:23:52;;;;;;;18.40;11.10;;;;;;;20.82;28.73;99488.16;4442507;31;34754;-84
2021/04/02 11:26:19;;;;;;;22.02;11.18;;;;;;;20.61;28.51;99475.72;4466789;31;33724;-84
2021/04/02 11:28:46;;;;;;;17.85;10.65;;;;;;;20.65;28.89;99465.53;4455721;32;33876;-84
2021/04/02 11:31:13;;;;;;;15.52;10.45;;;;;;;21.22;27.33;99462.03;4465359;31;33945;-85
2021/04/02 11:33:41;;;;;;;18.40;10.80;;;;;;;21.47;25.62;99467.81;4459911;32;33262;-84
2021/04/02 11:36:08;;;;;;;19.98;10.60;;;;;;;21.51;25.25;99454.91;4482333;31;33510;-85
2021/04/02 11:38:36;;;;;;;17.73;9.68;;;;;;;21.17;26.51;99461.59;4467075;31;33310;-84
2021/04/02 11:41:04;;;;;;;18.92;10.73;;;;;;;21.31;27.46;99451.41;4453328;31;33963;-85